createdAt,value
2018-06-21T00:01:10.417Z,97339.48
2018-06-21T00:03:37.815Z,97338.74
2018-06-21T00:06:05.312Z,97342.84
2018-06-21T00:08:32.832Z,97340.86
2018-06-21T00:11:00.369Z,97337.26
2018-06-21T00:13:27.861Z,97341.59
2018-06-21T00:15:55.322Z,97337.98
2018-06-21T00:18:23.541Z,97338.33
2018-06-21T00:20:50.917Z,97334.33
2018-06-21T00:23:18.355Z,97335.63
2018-06-21T00:25:45.820Z,97332.80
2018-06-21T00:28:13.272Z,97332.21
2018-06-21T00:30:40.751Z,97331.36
2018-06-21T00:33:08.187Z,97333.33
2018-06-21T00:35:35.633Z,97330.78
2018-06-21T00:38:03.055Z,97334.91
2018-06-21T00:40:30.497Z,97338.08
2018-06-21T00:42:58.115Z,97337.52
2018-06-21T00:45:25.688Z,97333.39
2018-06-21T00:47:53.973Z,97336.29
2018-06-21T00:50:21.525Z,97335.57
2018-06-21T00:52:48.977Z,97331.34
2018-06-21T00:55:16.508Z,97330.48
2018-06-21T00:57:43.984Z,97328.27
2018-06-21T01:00:11.441Z,97330.63
2018-06-21T01:02:38.893Z,97331.78
2018-06-21T01:05:06.381Z,97330.70
2018-06-21T01:07:33.867Z,97321.78
2018-06-21T01:10:01.313Z,97321.03
2018-06-21T01:12:28.795Z,97324.00
2018-06-21T01:14:56.265Z,97318.66
2018-06-21T01:17:23.712Z,97320.72
2018-06-21T01:19:51.142Z,97324.98
2018-06-21T01:22:18.602Z,97319.48
2018-06-21T01:24:46.103Z,97322.26
2018-06-21T01:27:13.585Z,97322.27
2018-06-21T01:29:41.024Z,97316.09
2018-06-21T01:32:08.421Z,97326.88
2018-06-21T01:34:35.883Z,97334.40
2018-06-21T01:37:03.359Z,97327.71
2018-06-21T01:39:30.871Z,97333.89
2018-06-21T01:41:58.341Z,97330.80
2018-06-21T01:44:25.845Z,97325.55
2018-06-21T01:46:53.374Z,97325.95
2018-06-21T01:49:21.157Z,97325.13
2018-06-21T01:51:48.637Z,97321.19
2018-06-21T01:54:16.143Z,97324.97
2018-06-21T01:56:43.657Z,97326.31
2018-06-21T01:59:11.106Z,97322.30
2018-06-21T02:01:38.544Z,97322.64
2018-06-21T02:04:06.121Z,97320.64
2018-06-21T02:06:33.646Z,97320.48
2018-06-21T02:09:01.184Z,97316.72
2018-06-21T02:11:28.684Z,97318.22
2018-06-21T02:13:56.141Z,97315.82
2018-06-21T02:16:23.596Z,97309.87
2018-06-21T02:18:51.073Z,97309.47
2018-06-21T02:21:18.533Z,97314.81
2018-06-21T02:23:46.070Z,97307.78
2018-06-21T02:26:13.593Z,97301.45
2018-06-21T02:28:41.010Z,97302.28
2018-06-21T02:31:08.468Z,97305.30
2018-06-21T02:33:35.926Z,97304.31
2018-06-21T02:36:03.330Z,97304.81
2018-06-21T02:38:30.804Z,97299.04
2018-06-21T02:40:58.217Z,97300.69
2018-06-21T02:43:25.646Z,97295.91
2018-06-21T02:45:53.079Z,97302.58
2018-06-21T02:48:20.684Z,97306.36
2018-06-21T02:50:48.127Z,97311.09
2018-06-21T02:53:15.599Z,97310.27
2018-06-21T02:55:43.010Z,97311.91
2018-06-21T02:58:10.585Z,97314.16
2018-06-21T03:00:37.986Z,97310.29
2018-06-21T03:03:05.423Z,97308.78
2018-06-21T03:05:32.881Z,97312.30
2018-06-21T03:08:00.321Z,97309.67
2018-06-21T03:10:27.763Z,97319.61
2018-06-21T03:12:55.195Z,97308.41
2018-06-21T03:15:22.681Z,97316.42
2018-06-21T03:17:50.768Z,97308.52
2018-06-21T03:20:18.202Z,97309.42
2018-06-21T03:22:45.679Z,97311.52
2018-06-21T03:25:13.167Z,97311.52
2018-06-21T03:27:40.648Z,97304.16
2018-06-21T03:30:08.135Z,97312.33
2018-06-21T03:32:35.608Z,97309.50
2018-06-21T03:35:03.049Z,97317.00
2018-06-21T03:37:30.502Z,97311.33
2018-06-21T03:39:57.890Z,97313.09
2018-06-21T03:42:25.341Z,97319.28
2018-06-21T03:44:52.834Z,97308.69
2018-06-21T03:47:20.277Z,97310.61
2018-06-21T03:49:47.707Z,97309.69
2018-06-21T03:52:15.211Z,97313.78
2018-06-21T03:54:42.877Z,97312.77
2018-06-21T03:57:10.313Z,97318.32
2018-06-21T03:59:37.814Z,97323.26
2018-06-21T04:02:05.264Z,97324.89
2018-06-21T04:04:32.693Z,97323.33
2018-06-21T04:07:00.131Z,97329.41
2018-06-21T04:09:27.544Z,97323.92
2018-06-21T04:11:55.017Z,97325.42
2018-06-21T04:14:22.542Z,97331.94
2018-06-21T04:16:50.032Z,97323.45
2018-06-21T04:19:17.458Z,97325.81
2018-06-21T04:21:44.945Z,97323.98
2018-06-21T04:24:12.354Z,97326.75
2018-06-21T04:26:39.787Z,97326.09
2018-06-21T04:29:07.211Z,97328.09
2018-06-21T04:31:34.672Z,97326.25
2018-06-21T04:34:02.100Z,97331.02
2018-06-21T04:36:29.566Z,97334.20
2018-06-21T04:38:56.986Z,97337.19
2018-06-21T04:41:24.469Z,97346.40
2018-06-21T04:43:51.912Z,97345.83
2018-06-21T04:46:19.402Z,97348.85
2018-06-21T04:48:46.940Z,97349.70
2018-06-21T04:51:14.405Z,97349.54
2018-06-21T04:53:41.936Z,97348.14
2018-06-21T04:56:09.380Z,97345.53
2018-06-21T04:58:36.810Z,97346.47
2018-06-21T05:01:04.236Z,97354.72
2018-06-21T05:03:31.675Z,97353.97
2018-06-21T05:05:59.162Z,97351.20
2018-06-21T05:08:26.603Z,97353.59
2018-06-21T05:10:54.228Z,97349.68
2018-06-21T05:13:21.618Z,97353.22
2018-06-21T05:15:49.181Z,97344.05
2018-06-21T05:18:16.669Z,97347.13
2018-06-21T05:20:44.107Z,97342.66
2018-06-21T05:23:11.550Z,97347.16
2018-06-21T05:25:38.961Z,97346.45
2018-06-21T05:28:06.420Z,97346.05
2018-06-21T05:30:33.982Z,97347.17
2018-06-21T05:33:01.427Z,97347.48
2018-06-21T05:35:28.875Z,97358.45
2018-06-21T05:37:56.357Z,97357.58
2018-06-21T05:40:23.815Z,97358.61
2018-06-21T05:42:51.251Z,97362.75
2018-06-21T05:45:18.775Z,97365.06
2018-06-21T05:47:46.182Z,97361.39
2018-06-21T05:50:13.718Z,97363.05
2018-06-21T05:52:41.080Z,97363.46
2018-06-21T05:55:08.520Z,97363.56
2018-06-21T05:57:35.973Z,97363.98
2018-06-21T06:00:03.806Z,97368.11
2018-06-21T06:02:31.366Z,97362.53
2018-06-21T06:04:58.809Z,97363.02
2018-06-21T06:07:26.291Z,97362.50
2018-06-21T06:09:53.744Z,97355.36
2018-06-21T06:12:21.191Z,97352.86
2018-06-21T06:14:48.740Z,97348.25
2018-06-21T06:17:16.161Z,97350.56
2018-06-21T06:19:43.607Z,97349.18
2018-06-21T06:22:11.028Z,97344.77
2018-06-21T06:24:38.451Z,97339.23
2018-06-21T06:27:05.948Z,97341.27
2018-06-21T06:29:33.402Z,97344.84
2018-06-21T06:32:00.906Z,97345.50
2018-06-21T06:34:28.387Z,97347.42
2018-06-21T06:36:55.855Z,97346.89
2018-06-21T06:39:23.323Z,97352.07
2018-06-21T06:41:50.767Z,97353.36
2018-06-21T06:44:18.307Z,97350.50
2018-06-21T06:46:46.356Z,97349.88
2018-06-21T06:49:13.802Z,97357.61
2018-06-21T06:51:41.882Z,97346.22
2018-06-21T06:54:09.382Z,97344.59
2018-06-21T06:56:36.878Z,97345.48
2018-06-21T06:59:05.286Z,97341.98
2018-06-21T07:01:32.745Z,97329.17
2018-06-21T07:04:00.135Z,97330.31
2018-06-21T07:06:27.609Z,97325.42
2018-06-21T07:08:55.063Z,97326.70
2018-06-21T07:11:22.525Z,97314.20
2018-06-21T07:13:49.975Z,97315.37
2018-06-21T07:16:17.421Z,97312.52
2018-06-21T07:18:44.914Z,97322.98
2018-06-21T07:21:12.388Z,97325.68
2018-06-21T07:23:39.828Z,97318.95
2018-06-21T07:26:07.303Z,97309.42
2018-06-21T07:28:34.812Z,97307.72
2018-06-21T07:31:02.355Z,97302.58
2018-06-21T07:33:29.894Z,97303.97
2018-06-21T07:35:57.358Z,97309.40
2018-06-21T07:38:24.848Z,97309.25
2018-06-21T07:40:52.370Z,97309.86
2018-06-21T07:43:19.932Z,97305.70
2018-06-21T07:45:47.411Z,97302.66
2018-06-21T07:48:14.852Z,97301.31
2018-06-21T07:50:42.396Z,97304.55
2018-06-21T07:53:09.891Z,97304.83
2018-06-21T07:55:37.311Z,97301.64
2018-06-21T07:58:04.793Z,97304.86
2018-06-21T08:00:32.262Z,97302.78
2018-06-21T08:02:59.738Z,97301.52
2018-06-21T08:05:27.257Z,97309.95
2018-06-21T08:07:54.859Z,97301.44
2018-06-21T08:10:22.364Z,97298.73
2018-06-21T08:12:49.784Z,97299.72
2018-06-21T08:15:17.238Z,97301.33
2018-06-21T08:17:44.683Z,97301.80
2018-06-21T08:20:12.329Z,97293.05
2018-06-21T08:22:39.739Z,97299.23
2018-06-21T08:25:07.184Z,97292.09
2018-06-21T08:27:34.711Z,97292.93
2018-06-21T08:30:02.139Z,97289.94
2018-06-21T08:32:29.607Z,97291.65
2018-06-21T08:34:57.114Z,97284.59
2018-06-21T08:37:24.584Z,97278.95
2018-06-21T08:39:52.216Z,97281.54
2018-06-21T08:42:19.661Z,97281.15
2018-06-21T08:44:47.095Z,97282.55
2018-06-21T08:47:14.658Z,97283.69
2018-06-21T08:49:42.121Z,97280.84
2018-06-21T08:52:09.599Z,97287.00
2018-06-21T08:54:37.036Z,97286.08
2018-06-21T08:57:04.504Z,97286.42
2018-06-21T08:59:31.975Z,97283.98
2018-06-21T09:01:59.407Z,97289.86
2018-06-21T09:04:26.844Z,97294.78
2018-06-21T09:06:54.337Z,97286.72
2018-06-21T09:09:21.941Z,97291.45
2018-06-21T09:11:49.503Z,97287.14
2018-06-21T09:14:16.949Z,97289.41
2018-06-21T09:16:44.407Z,97285.00
2018-06-21T09:19:11.853Z,97287.92
2018-06-21T09:21:39.330Z,97290.41
2018-06-21T09:24:06.831Z,97284.48
2018-06-21T09:26:34.236Z,97287.30
2018-06-21T09:29:01.880Z,97287.63
2018-06-21T09:31:29.381Z,97289.72
2018-06-21T09:33:56.998Z,97283.81
2018-06-21T09:36:24.738Z,97276.17
2018-06-21T09:38:57.767Z,97274.80
2018-06-21T09:44:28.250Z,97274.38
2018-06-21T09:47:01.319Z,97281.40
2018-06-21T09:49:29.316Z,97276.20
2018-06-21T09:51:56.874Z,97269.24
2018-06-21T09:54:24.530Z,97275.69
2018-06-21T09:56:51.951Z,97273.21
2018-06-21T09:59:20.270Z,97273.98
2018-06-21T10:01:47.694Z,97265.75
2018-06-21T10:04:15.179Z,97267.10
2018-06-21T10:06:42.668Z,97273.06
2018-06-21T10:09:10.158Z,97266.22
2018-06-21T10:11:37.750Z,97256.55
2018-06-21T10:14:05.321Z,97261.70
2018-06-21T10:16:32.790Z,97261.86
2018-06-21T10:19:00.252Z,97263.80
2018-06-21T10:21:27.853Z,97262.66
2018-06-21T10:23:55.462Z,97253.30
2018-06-21T10:26:22.932Z,97257.31
2018-06-21T10:28:50.383Z,97257.31
2018-06-21T10:31:17.950Z,97248.87
2018-06-21T10:33:45.429Z,97256.92
2018-06-21T10:36:13.030Z,97248.86
2018-06-21T10:38:40.590Z,97246.43
2018-06-21T10:41:08.215Z,97245.47
2018-06-21T10:43:35.633Z,97248.01
2018-06-21T10:46:03.097Z,97243.75
2018-06-21T10:48:30.522Z,97240.34
2018-06-21T10:50:58.003Z,97233.73
2018-06-21T10:53:25.869Z,97230.52
2018-06-21T10:55:53.449Z,97235.41
2018-06-21T10:58:20.945Z,97228.48
2018-06-21T11:00:48.562Z,97226.21
2018-06-21T11:03:16.141Z,97227.79
2018-06-21T11:05:43.635Z,97230.67
2018-06-21T11:08:11.192Z,97227.52
2018-06-21T11:10:38.838Z,97220.17
2018-06-21T11:13:06.274Z,97215.54
2018-06-21T11:15:33.725Z,97219.11
2018-06-21T11:18:01.226Z,97210.31
2018-06-21T11:20:28.802Z,97208.69
2018-06-21T11:22:56.275Z,97209.30
2018-06-21T11:25:23.760Z,97209.80
2018-06-21T11:27:51.316Z,97209.25
2018-06-21T11:30:18.858Z,97210.89
2018-06-21T11:32:46.324Z,97203.25
2018-06-21T11:35:13.783Z,97210.19
2018-06-21T11:37:41.190Z,97201.59
2018-06-21T11:40:08.622Z,97198.86
2018-06-21T11:42:36.288Z,97196.08
2018-06-21T11:45:03.887Z,97194.67
2018-06-21T11:47:31.404Z,97190.94
2018-06-21T11:49:58.888Z,97192.11
2018-06-21T11:52:26.334Z,97192.17
2018-06-21T11:54:53.806Z,97187.91
2018-06-21T11:57:21.296Z,97186.71
2018-06-21T11:59:48.790Z,97185.95
2018-06-21T12:02:16.278Z,97187.12
2018-06-21T12:04:43.707Z,97181.31
2018-06-21T12:07:11.208Z,97189.05
2018-06-21T12:09:38.646Z,97180.91
2018-06-21T12:12:06.083Z,97168.97
2018-06-21T12:14:33.744Z,97168.98
2018-06-21T12:17:01.510Z,97163.10
2018-06-21T12:19:28.972Z,97165.98
2018-06-21T12:21:56.440Z,97152.27
2018-06-21T12:24:23.900Z,97166.06
2018-06-21T12:26:51.431Z,97157.27
2018-06-21T12:29:18.883Z,97162.56
2018-06-21T12:31:46.384Z,97151.83
2018-06-21T12:34:13.802Z,97155.83
2018-06-21T12:36:41.936Z,97148.38
2018-06-21T12:39:09.396Z,97153.72
2018-06-21T12:41:37.440Z,97155.11
2018-06-21T12:44:05.613Z,97146.59
2018-06-21T12:46:33.100Z,97144.42
2018-06-21T12:49:00.763Z,97146.70
2018-06-21T12:51:28.216Z,97140.48
2018-06-21T12:53:55.770Z,97135.44
2018-06-21T12:56:23.373Z,97144.22
2018-06-21T12:58:50.813Z,97139.61
2018-06-21T13:01:18.264Z,97141.27
2018-06-21T13:03:45.806Z,97135.47
2018-06-21T13:06:13.296Z,97145.73
2018-06-21T13:11:38.651Z,97136.02
2018-06-21T13:14:17.990Z,97138.30
2018-06-21T13:16:45.398Z,97131.64
2018-06-21T13:19:13.513Z,97133.09
2018-06-21T13:21:41.042Z,97130.19
2018-06-21T13:24:08.531Z,97132.22
2018-06-21T13:26:35.987Z,97129.95
2018-06-21T13:29:04.050Z,97123.28
2018-06-21T13:31:31.542Z,97130.28
2018-06-21T13:33:59.026Z,97125.27
2018-06-21T13:36:26.574Z,97128.52
2018-06-21T13:38:54.037Z,97112.57
2018-06-21T13:41:21.734Z,97127.05
2018-06-21T13:43:49.274Z,97124.03
2018-06-21T13:46:16.819Z,97126.79
2018-06-21T13:48:44.338Z,97121.95
2018-06-21T13:51:11.833Z,97122.53
2018-06-21T13:53:39.294Z,97124.08
2018-06-21T13:56:06.795Z,97115.25
2018-06-21T13:58:34.314Z,97118.16
2018-06-21T14:01:01.808Z,97118.30
2018-06-21T14:03:29.283Z,97113.39
2018-06-21T14:05:56.802Z,97105.65
2018-06-21T14:08:24.314Z,97108.89
2018-06-21T14:10:51.808Z,97103.91
2018-06-21T14:13:19.317Z,97105.83
2018-06-21T14:15:46.822Z,97108.55
2018-06-21T14:18:14.333Z,97104.89
2018-06-21T14:20:41.863Z,97101.70
2018-06-21T14:23:09.391Z,97100.87
2018-06-21T14:25:36.844Z,97104.47
2018-06-21T14:28:04.335Z,97100.16
2018-06-21T14:30:31.756Z,97098.06
2018-06-21T14:32:59.272Z,97096.03
2018-06-21T14:35:26.812Z,97093.38
2018-06-21T14:37:54.245Z,97098.33
2018-06-21T14:40:21.961Z,97096.14
2018-06-21T14:42:49.542Z,97099.88
2018-06-21T14:45:17.025Z,97099.02
2018-06-21T14:47:45.846Z,97097.98
2018-06-21T14:50:13.348Z,97096.03
2018-06-21T14:52:40.864Z,97095.16
2018-06-21T14:55:08.343Z,97084.73
2018-06-21T14:57:35.839Z,97100.31
2018-06-21T15:00:03.375Z,97096.04
2018-06-21T15:02:30.830Z,97097.82
2018-06-21T15:04:58.471Z,97093.27
2018-06-21T15:07:25.847Z,97090.57
2018-06-21T15:09:53.262Z,97088.05
2018-06-21T15:12:20.815Z,97087.79
2018-06-21T15:14:48.277Z,97092.95
2018-06-21T15:17:15.725Z,97087.84
2018-06-21T15:19:43.244Z,97096.05
2018-06-21T15:22:10.731Z,97088.06
2018-06-21T15:24:38.183Z,97089.02
2018-06-21T15:27:06.772Z,97086.25
2018-06-21T15:29:34.382Z,97087.39
2018-06-21T15:32:01.813Z,97086.30
2018-06-21T15:34:29.350Z,97090.59
2018-06-21T15:36:56.800Z,97087.92
2018-06-21T15:39:24.437Z,97081.28
2018-06-21T15:41:51.877Z,97082.25
2018-06-21T15:44:19.469Z,97080.90
2018-06-21T15:46:46.937Z,97080.64
2018-06-21T15:49:14.354Z,97087.91
2018-06-21T15:51:41.902Z,97083.05
2018-06-21T15:54:09.276Z,97077.95
2018-06-21T15:56:36.994Z,97082.84
2018-06-21T15:59:04.480Z,97086.71
2018-06-21T16:01:31.962Z,97084.72
2018-06-21T16:03:59.475Z,97088.83
2018-06-21T16:06:26.916Z,97089.98
2018-06-21T16:08:54.417Z,97085.76
2018-06-21T16:11:21.912Z,97082.60
2018-06-21T16:13:49.352Z,97081.94
2018-06-21T16:16:16.793Z,97086.02
2018-06-21T16:18:44.294Z,97082.83
2018-06-21T16:21:11.731Z,97079.52
2018-06-21T16:23:39.169Z,97081.89
2018-06-21T16:26:06.640Z,97085.30
2018-06-21T16:28:34.110Z,97085.19
2018-06-21T16:31:01.519Z,97091.31
2018-06-21T16:33:29.193Z,97088.34
2018-06-21T16:35:56.560Z,97095.41
2018-06-21T16:38:24.040Z,97098.97
2018-06-21T16:40:51.514Z,97089.23
2018-06-21T16:43:19.076Z,97097.18
2018-06-21T16:45:46.605Z,97094.75
2018-06-21T16:48:14.094Z,97094.84
2018-06-21T16:50:41.508Z,97090.88
2018-06-21T16:53:08.946Z,97096.04
2018-06-21T16:55:37.262Z,97091.49
2018-06-21T16:58:04.700Z,97094.81
2018-06-21T17:00:32.281Z,97094.92
2018-06-21T17:02:59.692Z,97094.14
2018-06-21T17:05:27.183Z,97091.97
2018-06-21T17:07:54.613Z,97091.55
2018-06-21T17:10:22.118Z,97095.69
2018-06-21T17:12:49.601Z,97094.94
2018-06-21T17:15:17.098Z,97096.37
2018-06-21T17:17:44.539Z,97102.67
2018-06-21T17:20:12.043Z,97109.44
2018-06-21T17:22:39.528Z,97100.85
2018-06-21T17:25:07.023Z,97105.09
2018-06-21T17:27:34.489Z,97113.24
2018-06-21T17:30:02.660Z,97116.52
2018-06-21T17:32:30.077Z,97119.36
2018-06-21T17:34:57.569Z,97123.03
2018-06-21T17:37:25.031Z,97115.20
2018-06-21T17:39:52.487Z,97124.53
2018-06-21T17:42:20.007Z,97131.55
2018-06-21T17:44:47.464Z,97137.44
2018-06-21T17:47:14.943Z,97139.81
2018-06-21T17:49:42.729Z,97142.02
2018-06-21T17:52:10.195Z,97140.38
2018-06-21T17:54:37.596Z,97136.72
2018-06-21T17:57:04.986Z,97135.70
2018-06-21T17:59:32.466Z,97140.36
2018-06-21T18:01:59.943Z,97137.57
2018-06-21T18:04:27.347Z,97145.65
2018-06-21T18:06:54.843Z,97151.60
2018-06-21T18:09:22.245Z,97153.06
2018-06-21T18:11:49.711Z,97151.20
2018-06-21T18:14:17.166Z,97151.16
2018-06-21T18:16:44.610Z,97150.28
2018-06-21T18:21:45.941Z,97156.51
2018-06-21T18:24:13.371Z,97157.28
2018-06-21T18:26:40.786Z,97156.77
2018-06-21T18:29:08.434Z,97163.26
2018-06-21T18:31:35.847Z,97161.40
2018-06-21T18:34:03.351Z,97162.53
2018-06-21T18:36:30.749Z,97162.84
2018-06-21T18:38:58.274Z,97158.60
2018-06-21T18:41:25.703Z,97161.72
2018-06-21T18:43:53.291Z,97165.08
2018-06-21T18:46:20.744Z,97165.59
2018-06-21T18:48:48.175Z,97169.94
2018-06-21T18:51:15.633Z,97172.92
2018-06-21T18:53:43.096Z,97182.43
2018-06-21T18:56:10.516Z,97171.75
2018-06-21T18:58:38.011Z,97185.98
2018-06-21T19:01:05.433Z,97185.31
2018-06-21T19:03:32.879Z,97184.04
2018-06-21T19:06:00.536Z,97190.50
2018-06-21T19:08:28.008Z,97191.81
2018-06-21T19:13:49.633Z,97195.90
2018-06-21T19:16:17.054Z,97200.53
2018-06-21T19:18:44.618Z,97194.99
2018-06-21T19:21:12.071Z,97203.44
2018-06-21T19:23:40.212Z,97199.27
2018-06-21T19:26:07.659Z,97201.90
2018-06-21T19:28:35.062Z,97211.49
2018-06-21T19:31:02.564Z,97206.58
2018-06-21T19:33:29.969Z,97209.01
2018-06-21T19:35:57.485Z,97203.34
2018-06-21T19:38:24.974Z,97212.94
2018-06-21T19:40:52.398Z,97225.04
2018-06-21T19:43:19.942Z,97228.38
2018-06-21T19:45:47.272Z,97229.64
2018-06-21T19:48:14.754Z,97230.48
2018-06-21T19:50:42.170Z,97231.02
2018-06-21T19:53:09.636Z,97239.05
2018-06-21T19:55:37.076Z,97248.77
2018-06-21T19:58:04.552Z,97250.67
2018-06-21T20:00:32.119Z,97260.20
2018-06-21T20:02:59.591Z,97255.09
2018-06-21T20:05:26.990Z,97268.89
2018-06-21T20:07:54.495Z,97274.44
2018-06-21T20:10:22.154Z,97278.84
2018-06-21T20:12:49.891Z,97284.77
2018-06-21T20:15:17.334Z,97289.83
2018-06-21T20:17:44.792Z,97291.45
2018-06-21T20:20:12.258Z,97300.56
2018-06-21T20:22:39.834Z,97298.26
2018-06-21T20:25:07.365Z,97309.65
2018-06-21T20:27:34.824Z,97315.34
2018-06-21T20:30:02.267Z,97320.61
2018-06-21T20:32:29.678Z,97331.03
2018-06-21T20:34:57.273Z,97323.02
2018-06-21T20:37:24.711Z,97334.31
2018-06-21T20:39:52.166Z,97332.43
2018-06-21T20:42:19.661Z,97335.63
2018-06-21T20:44:47.111Z,97338.20
2018-06-21T20:47:14.704Z,97337.04
2018-06-21T20:49:43.027Z,97342.41
2018-06-21T20:52:10.509Z,97342.06
2018-06-21T20:54:38.209Z,97338.86
2018-06-21T20:57:05.655Z,97345.20
2018-06-21T20:59:33.139Z,97345.23
2018-06-21T21:02:00.570Z,97345.18
2018-06-21T21:04:28.077Z,97347.78
2018-06-21T21:06:55.474Z,97351.94
2018-06-21T21:09:22.958Z,97354.23
2018-06-21T21:11:50.440Z,97355.92
2018-06-21T21:14:17.911Z,97352.83
2018-06-21T21:16:45.462Z,97353.97
2018-06-21T21:19:13.007Z,97355.39
2018-06-21T21:21:40.451Z,97351.46
2018-06-21T21:24:08.065Z,97351.31
2018-06-21T21:26:35.543Z,97351.14
2018-06-21T21:29:03.059Z,97355.80
2018-06-21T21:31:30.610Z,97354.66
2018-06-21T21:33:58.130Z,97352.23
2018-06-21T21:36:25.588Z,97351.73
2018-06-21T21:38:53.110Z,97360.21
2018-06-21T21:41:20.668Z,97361.36
2018-06-21T21:43:48.155Z,97369.91
2018-06-21T21:46:15.773Z,97358.13
2018-06-21T21:48:43.237Z,97363.83
2018-06-21T21:51:10.830Z,97368.38
2018-06-21T21:53:38.304Z,97371.18
2018-06-21T21:56:05.761Z,97366.71
2018-06-21T21:58:33.232Z,97364.02
2018-06-21T22:01:00.697Z,97369.13
2018-06-21T22:03:28.117Z,97370.04
2018-06-21T22:05:55.531Z,97385.45
2018-06-21T22:08:23.010Z,97378.66
2018-06-21T22:10:50.462Z,97379.53
2018-06-21T22:13:18.022Z,97379.84
2018-06-21T22:15:45.386Z,97382.66
2018-06-21T22:18:12.855Z,97382.47
2018-06-21T22:20:40.411Z,97382.56
2018-06-21T22:23:08.099Z,97382.31
2018-06-21T22:25:35.761Z,97389.61
2018-06-21T22:28:03.203Z,97390.80
2018-06-21T22:30:30.660Z,97393.21
2018-06-21T22:32:58.094Z,97392.48
2018-06-21T22:35:25.592Z,97384.36
2018-06-21T22:37:53.006Z,97380.13
2018-06-21T22:40:20.564Z,97382.28
2018-06-21T22:42:48.159Z,97377.52
2018-06-21T22:45:15.712Z,97375.60
2018-06-21T22:47:43.201Z,97383.02
2018-06-21T22:50:10.615Z,97387.37
2018-06-21T22:52:38.104Z,97382.71
2018-06-21T22:55:05.708Z,97377.95
2018-06-21T22:57:33.170Z,97379.55
2018-06-21T23:00:00.718Z,97375.03
2018-06-21T23:02:28.220Z,97376.38
2018-06-21T23:04:55.669Z,97377.61
2018-06-21T23:07:23.143Z,97384.21
2018-06-21T23:09:50.578Z,97379.37
2018-06-21T23:12:18.013Z,97380.63
2018-06-21T23:14:45.616Z,97377.86
2018-06-21T23:17:12.929Z,97379.63
2018-06-21T23:19:40.473Z,97376.38
2018-06-21T23:24:41.852Z,97372.44
2018-06-21T23:27:09.404Z,97375.84
2018-06-21T23:29:36.868Z,97369.59
2018-06-21T23:32:04.321Z,97363.73
2018-06-21T23:34:31.783Z,97361.97
2018-06-21T23:36:59.273Z,97366.13
2018-06-21T23:39:26.916Z,97372.53
2018-06-21T23:41:54.323Z,97364.45
2018-06-21T23:44:21.836Z,97368.04
2018-06-21T23:46:49.286Z,97369.45
2018-06-21T23:49:16.769Z,97370.28
2018-06-21T23:51:44.239Z,97367.41
2018-06-21T23:54:11.771Z,97363.42
2018-06-21T23:56:39.219Z,97363.33
2018-06-21T23:59:06.698Z,97362.73
